Flight Track Log - Related Links

Times and Time Zones

All times are in EDT time to prevent confusion due to time zone crossing. See the UAL4422 flight status page for this flight to view local times or setup timezone preferences in your user account.

Time Position Orientation Groundspeed Altitude Reporting Facility
EDT Latitude Longitude Course Direction KTS MPH feet Rate Location/Type
Mon 06:11:00 PM 31.8488 -101.9129 111° Southeast  Level FlightAware Approximate
Mon 06:12:00 PM 31.8172 -101.8183 111° Southeast  Level FlightAware Approximate
Mon 06:12:06 PM 31.8817 -102.2058 108° East 285 328 9,400  Level Fort Worth Center
Mon 06:13:00 PM 31.7833 -101.7248 113° Southeast  Level FlightAware Approximate
Mon 06:13:06 PM 31.8544 -102.1042 107° East 290 334 10,800  Level Fort Worth Center
Mon 06:14:00 PM 31.7495 -101.6314 106° East  Level FlightAware Approximate
Mon 06:14:06 PM 31.8228 -101.9975 109° East 318 366 12,000  Level Fort Worth Center
Mon 06:15:00 PM 31.7204 -101.5149 106° East  Level FlightAware Approximate
Mon 06:15:06 PM 31.7933 -101.8908 108° East 332 382 14,800  Level Fort Worth Center
Mon 06:16:00 PM 31.6868 -101.4002 109° East  Level FlightAware Approximate
Mon 06:16:06 PM 31.7636 -101.7844 108° East 337 388 16,100  Level Fort Worth Center
Mon 06:17:06 PM 31.7281 -101.6606 109° East 361 415 16,800 1,000 Climbing Fort Worth Center
Mon 06:18:06 PM 31.6928 -101.5344 108° East 390 449 18,100 1,350 Climbing Fort Worth Center
Mon 06:19:06 PM 31.6550 -101.4108 110° East 398 458 19,500 1,339 Climbing Fort Worth Center
Mon 06:20:07 PM 31.6172 -101.2847 109° East 405 466 20,800 1,200 Climbing Fort Worth Center
Mon 06:21:06 PM 31.5794 -101.1514 108° East 412 474 21,900 1,261 Climbing Fort Worth Center
Mon 06:22:06 PM 31.5417 -101.0183 108° East 419 482 23,300 1,472 Climbing Fort Worth Center
Mon 06:23:45 PM 31.4758 -100.7925 109° East 428 493 25,800 1,379 Climbing Houston Center
Mon 06:24:47 PM 31.4361 -100.6617 110° East 427 491 27,000 1,306 Climbing Houston Center
Mon 06:25:49 PM 31.3986 -100.5306 108° East 425 489 28,500 1,403 Climbing Houston Center
Mon 06:26:51 PM 31.3581 -100.4033 110° East 419 482 29,900 1,161 Climbing Houston Center
Mon 06:27:53 PM 31.3147 -100.2767 112° Southeast 420 483 30,900 532 Climbing Houston Center
Mon 06:28:55 PM 31.2689 -100.1439 112° Southeast 437 503 31,000 48 Climbing Houston Center
Mon 06:29:57 PM 31.2092 -99.9700 112° Southeast 475 547 31,000  Level Houston Center
Mon 06:30:59 PM 31.1597 -99.8231 111° Southeast 483 556 31,000  Level Houston Center
Mon 06:32:01 PM 31.1206 -99.6736 107° East 479 551 31,000  Level Houston Center
Mon 06:33:03 PM 31.1094 -99.5139 95° East 489 563 31,000  Level Houston Center
Mon 06:34:05 PM 31.0969 -99.3550 95° East 490 564 31,000  Level Houston Center
Mon 06:35:07 PM 31.0847 -99.1969 95° East 489 563 31,000  Level Houston Center
Mon 06:36:09 PM 31.0714 -99.0281 95° East 490 564 31,000  Level Houston Center
Mon 06:37:10 PM 31.0600 -98.8683 95° East 489 563 31,000 -242 Level Houston Center
Mon 06:38:13 PM 31.0467 -98.7114 96° East 484 557 30,500 -774 Descending Houston Center
Mon 06:39:14 PM 31.0322 -98.5308 95° East 475 547 29,400 -732 Descending Houston Center
Mon 06:40:16 PM 31.0192 -98.3767 96° East 474 545 29,000 -194 Descending Houston Center
Mon 06:41:18 PM 31.0061 -98.2194 95° East 481 554 29,000  Level Houston Center
Mon 06:42:20 PM 30.9931 -98.0628 96° East 481 554 29,000  Level Houston Center
Mon 06:43:22 PM 30.9792 -97.9044 96° East 485 558 29,000  Level Houston Center
Mon 06:44:24 PM 30.9656 -97.7458 96° East 488 562 29,000  Level Houston Center
Mon 06:45:25 PM 30.9517 -97.5875 96° East 488 562 29,000  Level Houston Center
Mon 06:46:28 PM 30.9372 -97.4300 96° East 485 558 29,000  Level Houston Center
Mon 06:47:29 PM 30.9194 -97.2550 97° East 491 565 29,000  Level Houston Center
Mon 06:48:31 PM 30.8731 -97.0961 109° East 517 595 29,000  Level Houston Center
Mon 06:49:33 PM 30.8239 -96.9486 111° Southeast 493 567 29,000 -1,161 Level Houston Center
Mon 06:50:35 PM 30.7728 -96.7994 112° Southeast 494 568 26,600 -2,829 Descending Houston Center
Mon 06:51:36 PM 30.7219 -96.6500 112° Southeast 495 570 23,200 -3,171 Descending Houston Center
Mon 06:52:38 PM 30.6658 -96.4825 111° Southeast 476 548 20,100 -2,752 Descending Houston Center
Mon 06:53:25 PM 30.6292 -96.3764 112° Southeast 460 529 18,200 -2,323 Descending Houston Center
Mon 06:53:40 PM 30.6197 -96.3444 109° East 458 527 17,700 -2,382 Descending Houston Center
Mon 06:54:33 PM 30.5789 -96.2267 112° Southeast 436 502 15,500 -2,500 Descending Houston Center
Mon 06:55:28 PM 30.5375 -96.1103 112° Southeast 415 478 13,200 -2,366 Descending Houston Center
Mon 06:55:44 PM 30.5303 -96.0858 109° East 422 486 12,700 -1,935 Descending Houston Center
Mon 06:56:30 PM 30.4983 -95.9958 112° Southeast 364 419 11,200 -1,645 Descending Houston Center
Mon 06:56:46 PM 30.4933 -95.9772 107° East 371 427 11,000 -1,180 Descending Houston Center
Mon 06:57:31 PM 30.4647 -95.9003 113° Southeast 314 361 10,000 -968 Descending Houston Center
Mon 06:57:48 PM 30.4608 -95.8794 102° East 330 380 10,000 -985 Level Houston Center
Mon 06:58:38 PM 30.3953 -95.8481 158° South 271 312 8,900 -1,018 Descending Houston Center
Mon 06:59:40 PM 30.3219 -95.8517 182° South 237 273 8,100 -462 Descending Houston Center
Mon 07:00:35 PM 30.2614 -95.8539 182° South 235 270 8,000 -82 Descending Houston Center
Mon 07:00:53 PM 30.2442 -95.8536 179° South 239 275 8,000  Level Houston Center
Mon 07:01:36 PM 30.1942 -95.8544 181° South 241 277 8,000  Level Houston Center
Mon 07:01:55 PM 30.1775 -95.8556 183° South 239 275 8,000 -441 Level Houston Center
Mon 07:02:44 PM 30.1211 -95.8581 182° South 233 268 7,500 -1,038 Descending Houston Center
Mon 07:03:39 PM 30.0628 -95.8622 184° South 231 266 6,200 -1,200 Descending Houston Center
Mon 07:03:59 PM 30.0483 -95.8597 171° South 233 268 6,000 -197 Descending Houston Center
Mon 07:04:40 PM 30.0183 -95.8094 125° Southeast 237 273 6,000  Level Houston Center
Mon 07:05:01 PM 30.0125 -95.7950 115° Southeast 238 274 6,000 -295 Level Houston Center
Mon 07:05:41 PM 29.9892 -95.7406 116° Southeast 238 274 5,700 -581 Descending Houston Center
Mon 07:06:03 PM 29.9900 -95.7264 86° East 242 278 5,400 -1,279 Descending Houston Center
Mon 07:06:42 PM 29.9928 -95.6631 87° East 235 270 4,400 -1,279 Descending Houston Center
Mon 07:07:04 PM 29.9933 -95.6375 89° East 235 270 4,100 -484 Descending Houston Center
Mon 07:07:44 PM 29.9925 -95.5908 91° East 230 265 3,900 -581 Descending Houston Center
Mon 07:08:06 PM 29.9939 -95.5642 87° East 229 264 3,500 -1,100 Descending Houston Center
Mon 07:08:44 PM 29.9922 -95.5161 92° East 222 255 2,800 -1,065 Descending Houston Center
Mon 07:09:08 PM 29.9933 -95.4939 87° East 225 259 2,400 -1,000 Descending Houston Center

Login

Don't have an account? Register now (free) for customized features, flight alerts, and more!